createdAt,value
2022-08-01T00:01:32.167Z,13.60
2022-08-01T00:04:00.148Z,13.53
2022-08-01T00:06:28.245Z,13.43
2022-08-01T00:08:56.520Z,13.32
2022-08-01T00:11:24.396Z,13.24
2022-08-01T00:13:52.502Z,13.19
2022-08-01T00:16:23.845Z,13.25
2022-08-01T00:18:53.525Z,13.23
2022-08-01T00:21:21.698Z,13.09
2022-08-01T00:23:49.975Z,12.98
2022-08-01T00:26:19.845Z,12.95
2022-08-01T00:28:48.409Z,12.90
2022-08-01T00:31:16.550Z,12.83
2022-08-01T00:33:45.847Z,12.89
2022-08-01T00:36:15.599Z,12.90
2022-08-01T00:38:44.875Z,12.86
2022-08-01T00:41:37.509Z,12.81
2022-08-01T00:44:31.534Z,12.77
2022-08-01T00:46:59.414Z,12.76
2022-08-01T00:49:27.484Z,12.77
2022-08-01T00:51:57.866Z,12.75
2022-08-01T00:54:27.275Z,12.77
2022-08-01T00:56:55.674Z,12.79
2022-08-01T00:59:25.913Z,12.76
2022-08-01T01:01:54.052Z,12.70
2022-08-01T01:04:22.748Z,12.59
2022-08-01T01:06:59.702Z,12.49
2022-08-01T01:09:36.916Z,12.43
2022-08-01T01:12:15.879Z,12.43
2022-08-01T01:14:52.973Z,12.44
2022-08-01T01:17:41.961Z,12.40
2022-08-01T01:20:19.470Z,12.36
2022-08-01T01:23:07.726Z,12.29
2022-08-01T01:25:48.646Z,12.24
2022-08-01T01:28:23.162Z,12.28
2022-08-01T01:30:57.787Z,12.34
2022-08-01T01:33:29.609Z,12.29
2022-08-01T01:36:02.879Z,12.22
2022-08-01T01:38:36.164Z,12.14
2022-08-01T01:41:05.926Z,12.17
2022-08-01T01:43:35.489Z,12.13
2022-08-01T01:46:07.029Z,12.11
2022-08-01T01:48:36.589Z,12.19
2022-08-01T01:51:05.482Z,12.16
2022-08-01T01:53:35.538Z,12.12
2022-08-01T01:56:04.816Z,12.10
2022-08-01T01:58:35.347Z,12.10
2022-08-01T02:01:05.276Z,12.12
2022-08-01T02:03:44.653Z,12.23
2022-08-01T02:06:15.695Z,12.28
2022-08-01T02:08:46.058Z,12.33
2022-08-01T02:11:23.312Z,12.36
2022-08-01T02:13:55.722Z,12.32
2022-08-01T02:16:27.334Z,12.32
2022-08-01T02:18:55.868Z,12.33
2022-08-01T02:21:29.310Z,12.33
2022-08-01T02:24:05.797Z,12.32
2022-08-01T02:26:36.005Z,12.26
2022-08-01T02:29:08.629Z,12.29
2022-08-01T02:31:42.227Z,12.31
2022-08-01T02:34:15.421Z,12.27
2022-08-01T02:36:46.726Z,12.31
2022-08-01T02:39:17.251Z,12.32
2022-08-01T02:41:49.211Z,12.34
2022-08-01T02:44:25.518Z,12.37
2022-08-01T02:46:59.018Z,12.39
2022-08-01T02:49:29.479Z,12.40
2022-08-01T02:51:59.185Z,12.45
2022-08-01T02:54:28.338Z,12.44
2022-08-01T02:56:58.771Z,12.47
2022-08-01T02:59:28.711Z,12.52
2022-08-01T03:02:03.068Z,12.56
2022-08-01T03:04:34.867Z,12.59
2022-08-01T03:07:05.233Z,12.62
2022-08-01T03:09:36.326Z,12.70
2022-08-01T03:12:09.139Z,12.74
2022-08-01T03:14:41.090Z,12.82
2022-08-01T03:17:12.426Z,12.85
2022-08-01T03:19:41.526Z,12.90
2022-08-01T03:22:13.966Z,12.99
2022-08-01T03:24:43.667Z,13.18
2022-08-01T03:27:13.198Z,13.43
2022-08-01T03:29:43.045Z,13.57
2022-08-01T03:32:13.782Z,13.75
2022-08-01T03:34:42.082Z,13.88
2022-08-01T03:37:14.653Z,14.06
2022-08-01T03:39:48.652Z,14.18
2022-08-01T03:42:21.844Z,14.34
2022-08-01T03:44:55.154Z,14.46
2022-08-01T03:47:28.381Z,14.51
2022-08-01T03:49:58.431Z,14.56
2022-08-01T03:52:27.890Z,14.59
2022-08-01T03:54:57.401Z,14.62
2022-08-01T03:57:36.268Z,14.63
2022-08-01T04:00:07.880Z,14.75
2022-08-01T04:02:38.456Z,14.76
2022-08-01T04:05:08.314Z,14.73
2022-08-01T04:07:37.731Z,14.73
2022-08-01T04:10:06.811Z,14.73
2022-08-01T04:12:36.050Z,14.88
2022-08-01T04:15:05.115Z,14.98
2022-08-01T04:17:32.995Z,15.14
2022-08-01T04:20:02.703Z,15.34
2022-08-01T04:22:31.803Z,15.51
2022-08-01T04:25:11.637Z,15.61
2022-08-01T04:27:49.953Z,15.70
2022-08-01T04:30:25.736Z,15.94
2022-08-01T04:32:56.544Z,16.15
2022-08-01T04:36:01.365Z,16.25
2022-08-01T04:38:22.076Z,16.32
2022-08-01T04:40:54.453Z,16.45
2022-08-01T04:43:22.806Z,16.77
2022-08-01T04:45:52.965Z,17.04
2022-08-01T04:48:22.863Z,17.40
2022-08-01T04:50:52.834Z,17.57
2022-08-01T04:53:23.386Z,17.71
2022-08-01T04:55:51.656Z,17.97
2022-08-01T04:58:20.685Z,18.23
2022-08-01T05:00:49.143Z,18.43
2022-08-01T05:03:16.991Z,18.62
2022-08-01T05:05:45.162Z,18.82
2022-08-01T05:08:14.451Z,18.93
2022-08-01T05:10:42.322Z,18.95
2022-08-01T05:13:10.424Z,18.90
2022-08-01T05:15:39.022Z,18.85
2022-08-01T05:18:08.760Z,18.82
2022-08-01T05:20:38.025Z,18.79
2022-08-01T05:23:06.397Z,18.88
2022-08-01T05:25:58.056Z,18.95
2022-08-01T05:28:26.966Z,19.10
2022-08-01T05:30:56.219Z,19.19
2022-08-01T05:33:24.232Z,19.23
2022-08-01T05:35:52.342Z,19.20
2022-08-01T05:38:20.547Z,19.23
2022-08-01T05:40:49.821Z,19.30
2022-08-01T05:43:17.623Z,19.40
2022-08-01T05:45:45.710Z,19.43
2022-08-01T05:48:13.842Z,19.69
2022-08-01T05:50:41.693Z,19.84
2022-08-01T05:53:09.689Z,19.90
2022-08-01T05:55:37.981Z,20.02
2022-08-01T05:58:07.251Z,20.20
2022-08-01T06:00:35.332Z,20.20
2022-08-01T06:03:03.202Z,20.22
2022-08-01T06:05:31.285Z,20.26
2022-08-01T06:07:59.827Z,20.28
2022-08-01T06:10:27.757Z,20.21
2022-08-01T06:12:55.624Z,20.18
2022-08-01T06:15:24.998Z,20.19
2022-08-01T06:17:52.906Z,20.34
2022-08-01T06:20:21.053Z,20.36
2022-08-01T06:22:52.511Z,20.45
2022-08-01T06:25:21.288Z,20.47
2022-08-01T06:27:50.712Z,20.42
2022-08-01T06:30:18.705Z,20.50
2022-08-01T06:32:48.448Z,20.70
2022-08-01T06:35:16.607Z,20.94
2022-08-01T06:37:45.781Z,21.01
2022-08-01T06:40:17.223Z,21.07
2022-08-01T06:42:46.911Z,21.33
2022-08-01T06:45:15.457Z,21.46
2022-08-01T06:47:44.619Z,21.69
2022-08-01T06:50:18.342Z,21.79
2022-08-01T06:52:46.398Z,21.68
2022-08-01T06:55:14.380Z,21.67
2022-08-01T06:57:48.668Z,21.53
2022-08-01T07:00:19.564Z,21.44
2022-08-01T07:02:47.746Z,21.45
2022-08-01T07:05:16.001Z,21.43
2022-08-01T07:07:45.499Z,21.28
2022-08-01T07:10:13.664Z,21.21
2022-08-01T07:12:42.168Z,21.32
2022-08-01T07:15:12.102Z,21.33
2022-08-01T07:17:41.128Z,21.27
2022-08-01T07:20:10.870Z,21.39
2022-08-01T07:22:39.165Z,21.42
2022-08-01T07:25:10.098Z,21.54
2022-08-01T07:27:39.501Z,21.63
2022-08-01T07:30:08.437Z,21.74
2022-08-01T07:32:37.393Z,21.85
2022-08-01T07:35:06.147Z,21.96
2022-08-01T07:37:47.899Z,21.93
2022-08-01T07:40:19.482Z,21.93
2022-08-01T07:42:47.877Z,21.99
2022-08-01T07:45:16.343Z,22.04
2022-08-01T07:47:44.552Z,22.16
2022-08-01T07:50:13.768Z,22.17
2022-08-01T07:52:42.143Z,22.34
2022-08-01T07:55:11.563Z,22.39
2022-08-01T07:57:41.216Z,22.43
2022-08-01T08:00:10.829Z,22.54
2022-08-01T08:02:38.628Z,22.75
2022-08-01T08:05:08.389Z,22.91
2022-08-01T08:07:36.450Z,23.13
2022-08-01T08:10:05.649Z,23.07
2022-08-01T08:12:35.786Z,22.91
2022-08-01T08:15:06.766Z,22.84
2022-08-01T08:17:36.163Z,22.84
2022-08-01T08:20:08.900Z,22.68
2022-08-01T08:22:38.140Z,22.67
2022-08-01T08:25:07.767Z,22.58
2022-08-01T08:27:37.590Z,22.70
2022-08-01T08:30:10.038Z,22.69
2022-08-01T08:32:38.603Z,22.76
2022-08-01T08:35:08.931Z,22.78
2022-08-01T08:37:47.796Z,23.02
2022-08-01T08:40:17.881Z,23.34
2022-08-01T08:42:47.627Z,23.73
2022-08-01T08:45:16.834Z,23.96
2022-08-01T08:47:47.970Z,24.13
2022-08-01T08:50:16.208Z,24.21
2022-08-01T08:52:46.590Z,24.32
2022-08-01T08:55:16.752Z,24.42
2022-08-01T08:57:46.362Z,24.27
2022-08-01T09:00:17.451Z,24.23
2022-08-01T09:02:47.571Z,24.21
2022-08-01T09:05:19.443Z,24.25
2022-08-01T09:07:48.181Z,24.50
2022-08-01T09:10:16.032Z,24.55
2022-08-01T09:13:06.296Z,24.45
2022-08-01T09:15:44.427Z,24.43
2022-08-01T09:18:31.879Z,24.67
2022-08-01T09:21:15.194Z,25.02
2022-08-01T09:23:53.263Z,25.15
2022-08-01T09:26:29.967Z,25.09
2022-08-01T09:29:00.868Z,24.68
2022-08-01T09:31:38.016Z,24.52
2022-08-01T09:34:07.056Z,24.38
2022-08-01T09:36:49.433Z,24.44
2022-08-01T09:39:17.878Z,24.57
2022-08-01T09:41:45.713Z,24.84
2022-08-01T09:44:13.724Z,24.99
2022-08-01T09:46:53.806Z,25.17
2022-08-01T09:49:50.462Z,25.22
2022-08-01T09:52:25.746Z,25.04
2022-08-01T09:54:55.594Z,24.92
2022-08-01T09:57:25.106Z,24.62
2022-08-01T10:00:00.395Z,24.74
2022-08-01T10:02:34.136Z,24.82
2022-08-01T10:05:08.315Z,24.90
2022-08-01T10:07:42.966Z,24.95
2022-08-01T10:10:14.432Z,25.10
2022-08-01T10:12:45.402Z,25.32
2022-08-01T10:15:16.544Z,25.48
2022-08-01T10:17:57.336Z,25.52
2022-08-01T10:20:30.983Z,25.75
2022-08-01T10:23:01.859Z,25.71
2022-08-01T10:25:42.290Z,25.91
2022-08-01T10:28:23.645Z,26.07
2022-08-01T10:30:53.347Z,26.08
2022-08-01T10:33:51.750Z,25.80
2022-08-01T10:36:15.026Z,25.40
2022-08-01T10:38:45.430Z,25.24
2022-08-01T10:41:16.289Z,25.20
2022-08-01T10:43:45.530Z,25.23
2022-08-01T10:46:15.449Z,25.40
2022-08-01T10:48:50.164Z,25.35
2022-08-01T10:51:21.677Z,25.47
2022-08-01T10:53:54.006Z,25.80
2022-08-01T10:56:27.107Z,26.07
2022-08-01T10:59:11.320Z,26.55
2022-08-01T11:01:45.245Z,26.55
2022-08-01T11:04:18.175Z,27.20
2022-08-01T11:07:05.374Z,27.17
2022-08-01T11:09:41.189Z,27.05
2022-08-01T11:12:12.849Z,26.98
2022-08-01T11:15:29.290Z,26.87
2022-08-01T11:18:01.907Z,26.60
2022-08-01T11:20:33.713Z,27.36
2022-08-01T11:23:36.346Z,28.37
2022-08-01T11:26:28.755Z,29.10
2022-08-01T11:29:21.684Z,28.45
2022-08-01T11:31:51.138Z,28.45
2022-08-01T11:34:19.059Z,28.59
2022-08-01T11:36:59.026Z,29.09
2022-08-01T11:39:27.867Z,29.02
2022-08-01T11:42:17.565Z,28.57
2022-08-01T11:44:51.404Z,27.84
2022-08-01T11:47:19.571Z,27.39
2022-08-01T11:49:56.174Z,27.10
2022-08-01T11:52:30.676Z,26.37
2022-08-01T11:55:00.238Z,25.93
2022-08-01T11:57:34.002Z,25.59
2022-08-01T12:00:08.477Z,25.35
2022-08-01T12:02:37.370Z,25.06
2022-08-01T12:05:08.499Z,24.56
2022-08-01T12:07:42.725Z,24.26
2022-08-01T12:10:12.086Z,24.18
2022-08-01T12:12:45.227Z,23.98
2022-08-01T12:15:14.353Z,23.96
2022-08-01T12:17:46.915Z,24.33
2022-08-01T12:20:30.053Z,24.53
2022-08-01T12:23:01.275Z,24.69
2022-08-01T12:25:29.475Z,24.65
2022-08-01T12:28:02.387Z,24.57
2022-08-01T12:30:32.117Z,24.66
2022-08-01T12:33:00.747Z,24.52
2022-08-01T12:35:30.650Z,24.54
2022-08-01T12:38:02.409Z,24.75
2022-08-01T12:40:32.448Z,24.89
2022-08-01T12:43:03.205Z,25.04
2022-08-01T12:45:35.774Z,24.88
2022-08-01T12:48:08.649Z,24.73
2022-08-01T12:50:39.621Z,24.62
2022-08-01T12:53:11.012Z,24.32
2022-08-01T12:55:58.151Z,24.07
2022-08-01T12:58:32.871Z,23.74
2022-08-01T13:01:06.167Z,23.77
2022-08-01T13:03:34.473Z,23.75
2022-08-01T13:06:02.561Z,23.77
2022-08-01T13:08:34.851Z,24.07
2022-08-01T13:11:05.813Z,24.21
2022-08-01T13:13:41.375Z,24.44
2022-08-01T13:16:12.340Z,24.60
2022-08-01T13:18:51.601Z,24.60
2022-08-01T13:21:20.744Z,24.52
2022-08-01T13:24:06.384Z,24.60
2022-08-01T13:26:42.169Z,24.60
2022-08-01T13:29:11.743Z,24.53
2022-08-01T13:31:41.104Z,24.51
2022-08-01T13:34:09.586Z,24.63
2022-08-01T13:36:38.322Z,24.90
2022-08-01T13:39:25.794Z,24.90
2022-08-01T13:41:54.630Z,24.95
2022-08-01T13:44:22.572Z,25.32
2022-08-01T13:46:51.451Z,25.38
2022-08-01T13:49:20.137Z,25.41
2022-08-01T13:51:50.908Z,25.36
2022-08-01T13:54:20.696Z,25.63
2022-08-01T13:56:48.485Z,25.49
2022-08-01T13:59:16.489Z,25.69
2022-08-01T14:01:45.017Z,26.08
2022-08-01T14:04:13.077Z,26.44
2022-08-01T14:06:41.863Z,26.23
2022-08-01T14:09:17.285Z,26.05
2022-08-01T14:11:47.740Z,26.23
2022-08-01T14:14:15.732Z,27.56
2022-08-01T14:16:45.720Z,27.78
2022-08-01T14:19:13.705Z,28.78
2022-08-01T14:21:42.855Z,30.13
2022-08-01T14:24:10.729Z,32.17
2022-08-01T14:26:38.859Z,33.14
2022-08-01T14:29:08.221Z,33.64
2022-08-01T14:31:36.742Z,34.03
2022-08-01T14:34:04.912Z,33.69
2022-08-01T14:36:38.462Z,33.47
2022-08-01T14:39:07.505Z,32.88
2022-08-01T14:41:43.044Z,31.83
2022-08-01T14:44:15.029Z,30.88
2022-08-01T14:46:57.623Z,30.16
2022-08-01T14:49:26.960Z,31.18
2022-08-01T14:51:54.909Z,31.40
2022-08-01T14:54:29.120Z,31.11
2022-08-01T14:56:57.814Z,29.99
2022-08-01T14:59:27.025Z,29.37
2022-08-01T15:01:54.844Z,28.12
2022-08-01T15:04:22.974Z,27.17
2022-08-01T15:06:50.851Z,26.89
2022-08-01T15:09:18.755Z,26.62
2022-08-01T15:11:48.167Z,26.36
2022-08-01T15:14:33.531Z,26.10
2022-08-01T15:17:03.476Z,25.81
2022-08-01T15:19:31.653Z,25.35
2022-08-01T15:21:59.392Z,25.74
2022-08-01T15:24:29.761Z,26.85
2022-08-01T15:26:57.650Z,28.53
2022-08-01T15:29:25.636Z,29.66
2022-08-01T15:31:53.623Z,30.11
2022-08-01T15:34:22.923Z,29.55
2022-08-01T15:36:50.753Z,28.88
2022-08-01T15:39:18.812Z,27.92
2022-08-01T15:41:46.679Z,27.51
2022-08-01T15:44:14.791Z,27.14
2022-08-01T15:46:42.899Z,26.78
2022-08-01T15:49:11.669Z,26.46
2022-08-01T15:51:40.927Z,25.99
2022-08-01T15:54:12.862Z,25.69
2022-08-01T15:56:42.613Z,25.53
2022-08-01T15:59:11.222Z,25.31
2022-08-01T16:01:39.663Z,25.40
2022-08-01T16:04:07.907Z,25.55
2022-08-01T16:06:37.272Z,25.56
2022-08-01T16:09:07.427Z,25.51
2022-08-01T16:11:37.472Z,26.43
2022-08-01T16:14:09.204Z,27.51
2022-08-01T16:16:37.278Z,28.72
2022-08-01T16:19:05.799Z,29.73
2022-08-01T16:21:33.945Z,30.60
2022-08-01T16:24:02.180Z,31.41
2022-08-01T16:26:31.453Z,31.66
2022-08-01T16:28:59.327Z,31.48
2022-08-01T16:34:23.691Z,29.73
2022-08-01T16:36:53.418Z,28.34
2022-08-01T16:39:24.011Z,27.36
2022-08-01T16:41:56.268Z,26.57
2022-08-01T16:47:10.086Z,25.10
2022-08-01T16:49:40.141Z,24.69
2022-08-01T16:52:12.177Z,24.40
2022-08-01T16:54:47.068Z,24.16
2022-08-01T16:57:22.665Z,23.87
2022-08-01T16:59:54.278Z,23.77
2022-08-01T17:02:42.932Z,23.54
2022-08-01T17:05:14.707Z,23.49
2022-08-01T17:07:42.833Z,23.16
2022-08-01T17:10:11.963Z,23.23
2022-08-01T17:12:42.288Z,22.87
2022-08-01T17:15:11.237Z,22.66
2022-08-01T17:17:47.145Z,22.45
2022-08-01T17:20:28.638Z,22.26
2022-08-01T17:23:14.929Z,22.13
2022-08-01T17:25:46.364Z,22.07
2022-08-01T17:28:16.393Z,21.89
2022-08-01T17:30:44.670Z,21.80
2022-08-01T17:33:14.335Z,21.74
2022-08-01T17:35:42.899Z,21.86
2022-08-01T17:38:11.404Z,21.78
2022-08-01T17:40:41.019Z,21.66
2022-08-01T17:43:09.899Z,21.78
2022-08-01T17:54:57.705Z,21.18
2022-08-01T18:01:14.249Z,21.04
2022-08-01T18:03:54.928Z,21.07
2022-08-01T18:06:35.907Z,20.95
2022-08-01T18:09:09.416Z,20.70
2022-08-01T18:11:39.174Z,20.75
2022-08-01T18:14:08.568Z,20.69
2022-08-01T18:16:36.505Z,20.68
2022-08-01T18:19:06.769Z,20.51
2022-08-01T18:21:37.607Z,20.51
2022-08-01T18:24:11.925Z,20.50
2022-08-01T18:26:39.857Z,20.32
2022-08-01T18:29:09.936Z,20.29
2022-08-01T18:31:40.613Z,20.11
2022-08-01T18:34:08.597Z,20.01
2022-08-01T18:36:36.554Z,19.89
2022-08-01T18:39:10.336Z,19.70
2022-08-01T18:41:40.121Z,19.61
2022-08-01T18:44:09.740Z,19.61
2022-08-01T18:46:39.453Z,19.42
2022-08-01T18:49:08.781Z,19.40
2022-08-01T18:51:44.314Z,19.28
2022-08-01T18:54:15.358Z,19.24
2022-08-01T18:56:43.871Z,19.23
2022-08-01T18:59:15.741Z,19.00
2022-08-01T19:01:44.251Z,18.83
2022-08-01T19:04:13.526Z,18.70
2022-08-01T19:06:41.640Z,18.44
2022-08-01T19:09:10.344Z,18.48
2022-08-01T19:11:38.692Z,18.15
2022-08-01T19:14:06.776Z,18.13
2022-08-01T19:16:36.580Z,18.07
2022-08-01T19:19:05.723Z,18.14
2022-08-01T19:21:35.323Z,17.90
2022-08-01T19:24:23.665Z,17.79
2022-08-01T19:26:53.685Z,17.76
2022-08-01T19:29:23.891Z,17.86
2022-08-01T19:32:06.810Z,17.59
2022-08-01T19:34:37.538Z,17.84
2022-08-01T19:37:06.237Z,17.91
2022-08-01T19:39:34.525Z,17.77
2022-08-01T19:42:04.302Z,17.42
2022-08-01T19:44:32.891Z,17.44
2022-08-01T19:47:02.704Z,17.49
2022-08-01T19:49:32.323Z,17.39
2022-08-01T19:52:05.003Z,17.32
2022-08-01T19:54:36.720Z,16.94
2022-08-01T19:57:07.611Z,16.95
2022-08-01T19:59:37.114Z,17.18
2022-08-01T20:02:06.236Z,16.96
2022-08-01T20:04:37.437Z,16.90
2022-08-01T20:07:05.910Z,16.82
2022-08-01T20:09:35.412Z,16.49
2022-08-01T20:12:04.110Z,16.34
2022-08-01T20:14:32.405Z,16.16
2022-08-01T20:17:00.463Z,16.06
2022-08-01T20:19:32.642Z,15.89
2022-08-01T20:22:06.128Z,15.73
2022-08-01T20:24:41.426Z,15.60
2022-08-01T20:27:13.214Z,15.46
2022-08-01T20:29:45.987Z,15.35
2022-08-01T20:32:16.440Z,15.32
2022-08-01T20:34:44.605Z,15.27
2022-08-01T20:37:14.623Z,15.03
2022-08-01T20:39:45.299Z,15.12
2022-08-01T20:42:14.223Z,15.05
2022-08-01T20:44:43.100Z,14.95
2022-08-01T20:47:11.731Z,14.91
2022-08-01T20:49:40.033Z,14.88
2022-08-01T20:52:11.157Z,14.80
2022-08-01T20:54:42.494Z,14.74
2022-08-01T20:57:16.006Z,14.52
2022-08-01T20:59:55.966Z,14.39
2022-08-01T21:02:37.622Z,14.53
2022-08-01T21:05:10.901Z,14.38
2022-08-01T21:07:42.752Z,14.46
2022-08-01T21:10:15.288Z,14.46
2022-08-01T21:12:46.185Z,14.42
2022-08-01T21:15:20.927Z,14.46
2022-08-01T21:17:57.839Z,14.42
2022-08-01T21:20:29.450Z,14.36
2022-08-01T21:23:08.196Z,14.25
2022-08-01T21:25:38.211Z,14.26
2022-08-01T21:28:06.508Z,14.12
2022-08-01T21:30:37.017Z,14.15
2022-08-01T21:33:06.272Z,14.02
2022-08-01T21:35:35.822Z,14.00
2022-08-01T21:38:05.871Z,14.07
2022-08-01T21:40:38.316Z,14.06
2022-08-01T21:43:09.860Z,14.11
2022-08-01T21:45:39.858Z,14.14
2022-08-01T21:48:27.012Z,14.16
2022-08-01T21:51:00.071Z,14.13
2022-08-01T21:53:38.743Z,14.14
2022-08-01T21:56:25.163Z,14.16
2022-08-01T21:58:59.658Z,14.37
2022-08-01T22:01:33.384Z,14.31
2022-08-01T22:04:26.403Z,14.33
2022-08-01T22:06:55.569Z,14.25
2022-08-01T22:09:24.321Z,14.19
2022-08-01T22:12:01.395Z,14.09
2022-08-01T22:14:31.081Z,14.07
2022-08-01T22:17:01.569Z,13.99
2022-08-01T22:19:44.072Z,14.01
2022-08-01T22:22:50.423Z,14.06
2022-08-01T22:28:06.743Z,14.05
2022-08-01T22:30:42.416Z,14.03
2022-08-01T22:33:16.335Z,13.99
2022-08-01T22:35:52.838Z,13.98
2022-08-01T22:38:22.603Z,13.95
2022-08-01T22:40:52.655Z,13.87
2022-08-01T22:43:36.363Z,14.00
2022-08-01T22:46:17.120Z,13.94
2022-08-01T22:48:52.495Z,14.07
2022-08-01T22:51:43.936Z,14.27
2022-08-01T22:54:24.510Z,14.32
2022-08-01T22:56:57.029Z,14.42
2022-08-01T22:59:42.430Z,14.46
2022-08-01T23:02:16.464Z,14.51
2022-08-01T23:04:47.357Z,14.68
2022-08-01T23:07:22.178Z,14.89
2022-08-01T23:09:55.086Z,15.10
2022-08-01T23:12:25.959Z,15.07
2022-08-01T23:14:58.089Z,15.01
2022-08-01T23:17:29.704Z,14.98
2022-08-01T23:20:00.499Z,14.98
2022-08-01T23:22:31.830Z,15.02
2022-08-01T23:25:04.221Z,14.90
2022-08-01T23:27:54.359Z,14.92
2022-08-01T23:30:29.612Z,14.95
2022-08-01T23:32:58.024Z,14.90
2022-08-01T23:35:27.177Z,14.90
2022-08-01T23:38:01.873Z,14.93
2022-08-01T23:40:31.440Z,14.83
2022-08-01T23:42:59.735Z,14.89
2022-08-01T23:45:58.491Z,14.86
2022-08-01T23:48:17.767Z,14.84
2022-08-01T23:50:49.519Z,14.80
2022-08-01T23:53:20.229Z,14.62
2022-08-01T23:55:51.138Z,14.48
2022-08-01T23:58:22.268Z,14.37
